An Xiu Shan — BRQV — position and weather

sailwx.info

Track history (hours):
 
Tides and Currents Weather Stations Pressure Air Temp Water Temp Dewpoint Dewpoint Depression Visibility Wind Speed Wind Dir Waves Ship Positions

An Xiu Shan

Last reported at 2014-Dec-22 02:33 UTC. Time now 2014-Dec-22 05:39 UTC.
Position N 36°53' E 122°54'.

Length 199 m; draft 12.6 m.

Type: Cargo ship. MMSI: 413195000.

Date/timePositionNaut miles runAvg speedWind from/ knotsBaromVisibWave heightAir tempDewpointWater temp
2014-Dec-22 02:33N 36°53' E 122°54'1010.3
2014-Dec-22 01:32N 37°02' E 122°47'1010.5
2014-Dec-22 00:33N 37°13' E 122°48'10 9.8
2014-Dec-21 23:33N 37°22' E 122°48'11 9.0
2014-Dec-21 22:23N 37°31' E 122°41'8 9.0
2014-Dec-21 21:29N 37°37' E 122°34'10 9.4
2014-Dec-21 20:23N 37°44' E 122°24'12 9.9
2014-Dec-21 19:11N 37°50' E 122°11'157 9.9
2014-Dec-21 03:20N 39°42' E 119°50'810.0
2014-Dec-21 02:33N 39°49' E 119°45'7 7.4
2014-Dec-21 01:34N 39°55' E 119°40'0 0.1
2014-Dec-21 00:25N 39°55' E 119°41'0 0.0
2014-Dec-20 23:31N 39°55' E 119°41'0 0.0
2014-Dec-20 22:31N 39°55' E 119°41'0 0.0
2014-Dec-20 21:31N 39°55' E 119°41'0 0.0
2014-Dec-20 20:19N 39°55' E 119°41'0 0.0
2014-Dec-20 19:31N 39°55' E 119°41'0 0.0
2014-Dec-20 18:31N 39°55' E 119°41'0 0.0
2014-Dec-20 17:31N 39°55' E 119°41'0 0.0
2014-Dec-20 16:25N 39°55' E 119°41'0 0.0
2014-Dec-20 15:32N 39°55' E 119°41'0 0.0
2014-Dec-20 14:33N 39°55' E 119°41'0 0.0
2014-Dec-20 13:32N 39°55' E 119°41'0 0.0
2014-Dec-20 12:31N 39°55' E 119°41'0 0.0
2014-Dec-20 11:31N 39°55' E 119°41'0 0.0
2014-Dec-20 10:31N 39°55' E 119°41'0 0.0
2014-Dec-20 09:31N 39°55' E 119°41'0 0.0
2014-Dec-20 08:25N 39°55' E 119°41'0 0.0
2014-Dec-20 07:25N 39°55' E 119°41'0 0.0
2014-Dec-20 06:31N 39°55' E 119°41'0 0.0
2014-Dec-20 05:31N 39°55' E 119°41'0 0.0
2014-Dec-20 04:31N 39°55' E 119°41'0 0.0
2014-Dec-20 03:25N 39°55' E 119°41'0 0.0
2014-Dec-20 02:31N 39°55' E 119°41'0 0.0
2014-Dec-20 01:31N 39°55' E 119°41'0 0.0
2014-Dec-20 00:19N 39°55' E 119°41'0 0.0
2014-Dec-19 23:31N 39°55' E 119°41'0 0.0
2014-Dec-19 22:31N 39°55' E 119°41'0 0.0
2014-Dec-19 21:31N 39°55' E 119°41'0 0.0
2014-Dec-19 20:31N 39°55' E 119°41'0 0.0
2014-Dec-19 19:31N 39°55' E 119°41'0 0.0
2014-Dec-19 18:25N 39°55' E 119°41'0 0.0
2014-Dec-19 17:33N 39°55' E 119°41'3 3.4
2014-Dec-19 16:33N 39°52' E 119°42'3 3.0
2014-Dec-19 15:32N 39°49' E 119°43'1 1.3
2014-Dec-19 14:33N 39°48' E 119°44'4 3.7
2014-Dec-19 13:30N 39°48' E 119°49'0 0.2
2014-Dec-19 12:25N 39°48' E 119°49'0 0.0
2014-Dec-19 11:19N 39°48' E 119°49'0 0.0
2014-Dec-19 08:07N 39°48' E 119°49'0 0.1
2014-Dec-19 07:13N 39°48' E 119°49'0 0.2
2014-Dec-19 06:25N 39°48' E 119°49'0 0.1
2014-Dec-19 05:07N 39°48' E 119°49'0 0.0
2014-Dec-19 04:25N 39°48' E 119°49'0 0.0
2014-Dec-19 03:19N 39°48' E 119°49'0 0.1
2014-Dec-19 02:25N 39°48' E 119°49'0 0.0
2014-Dec-19 01:19N 39°48' E 119°49'0 0.0
2014-Dec-19 00:31N 39°48' E 119°49'0 0.0
2014-Dec-18 23:31N 39°48' E 119°49'0 0.0
2014-Dec-18 22:31N 39°48' E 119°49'0 0.1
2014-Dec-18 21:31N 39°48' E 119°49'0 0.0
2014-Dec-18 20:31N 39°48' E 119°49'0 0.0
2014-Dec-18 19:31N 39°48' E 119°49'0 0.0
2014-Dec-18 18:19N 39°48' E 119°49'0 0.1
2014-Dec-18 17:31N 39°48' E 119°49'3 2.6
2014-Dec-18 16:31N 39°46' E 119°51'15711.8
2014-Dec-18 03:12N 37°58' E 122°17'810.5
2014-Dec-18 02:29N 37°51' E 122°22'1111.9
2014-Dec-18 01:33N 37°45' E 122°34'1111.2
2014-Dec-18 00:34N 37°38' E 122°45'1610.8
2014-Dec-17 23:05N 37°24' E 122°53'711.3
2014-Dec-17 22:29N 37°17' E 122°53'1111.5
2014-Dec-17 21:33N 37°06' E 122°53'1211.8
2014-Dec-17 20:31N 36°54' E 122°54'1111.8
2014-Dec-17 19:33N 36°43' E 122°55'  
2014-Dec-15 06:31N 29°35' E 122°47'2411.3
2014-Dec-15 04:24N 29°12' E 122°38'27610.1
2014-Dec-14 01:04N 25°18' E 119°56'31 8.7
2014-Dec-13 21:33N 24°57' E 119°31'7 7.4
2014-Dec-13 20:33N 24°52' E 119°25'8 7.6
2014-Dec-13 19:32N 24°47' E 119°18'8 7.8
2014-Dec-13 18:33N 24°43' E 119°12'8 8.0
2014-Dec-13 17:33N 24°38' E 119°05'8 8.2
2014-Dec-13 16:33N 24°33' E 118°57'9 8.6
2014-Dec-13 15:33N 24°29' E 118°49'8 8.4
2014-Dec-13 14:33N 24°24' E 118°42'10 7.7
2014-Dec-13 13:12N 24°16' E 118°34'5 7.2
2014-Dec-13 12:33N 24°13' E 118°30'7 7.2
2014-Dec-13 11:33N 24°08' E 118°25'6 6.3
2014-Dec-13 10:33N 24°03' E 118°20'7 6.8
2014-Dec-13 09:33N 23°59' E 118°14'7 7.1
2014-Dec-13 08:33N 23°55' E 118°08'7 6.8
2014-Dec-13 07:33N 23°51' E 118°02'7 7.3
2014-Dec-13 06:33N 23°46' E 117°55'8 8.2
2014-Dec-13 05:33N 23°42' E 117°48'9 8.8
2014-Dec-13 04:33N 23°37' E 117°40'9 8.5
2014-Dec-13 03:29N 23°30' E 117°33'50 6.9
2014-Dec-12 20:15N 22°54' E 116°56'6 8.3
2014-Dec-12 19:33N 22°51' E 116°51'9 9.0
2014-Dec-12 18:33N 22°46' E 116°43'  
Track history (hours):
 
Tides and Currents Weather Stations Pressure Air Temp Water Temp Dewpoint Dewpoint Depression Visibility Wind Speed Wind Dir Waves Ship Positions

An Xiu Shan

Last reported at 2014-Dec-22 02:33 UTC. Time now 2014-Dec-22 05:39 UTC.
Position N 36°53' E 122°54'.

Length 199 m; draft 12.6 m.

Type: Cargo ship. MMSI: 413195000.

Date/timePositionNaut miles runAvg speedWind from/ knotsBaromVisibWave heightAir tempDewpointWater temp
2014-Dec-22 02:33N 36°53' E 122°54'1010.3
2014-Dec-22 01:32N 37°02' E 122°47'1010.5
2014-Dec-22 00:33N 37°13' E 122°48'10 9.8
2014-Dec-21 23:33N 37°22' E 122°48'11 9.0
2014-Dec-21 22:23N 37°31' E 122°41'8 9.0
2014-Dec-21 21:29N 37°37' E 122°34'10 9.4
2014-Dec-21 20:23N 37°44' E 122°24'12 9.9
2014-Dec-21 19:11N 37°50' E 122°11'157 9.9
2014-Dec-21 03:20N 39°42' E 119°50'810.0
2014-Dec-21 02:33N 39°49' E 119°45'7 7.4
2014-Dec-21 01:34N 39°55' E 119°40'0 0.1
2014-Dec-21 00:25N 39°55' E 119°41'0 0.0
2014-Dec-20 23:31N 39°55' E 119°41'0 0.0
2014-Dec-20 22:31N 39°55' E 119°41'0 0.0
2014-Dec-20 21:31N 39°55' E 119°41'0 0.0
2014-Dec-20 20:19N 39°55' E 119°41'0 0.0
2014-Dec-20 19:31N 39°55' E 119°41'0 0.0
2014-Dec-20 18:31N 39°55' E 119°41'0 0.0
2014-Dec-20 17:31N 39°55' E 119°41'0 0.0
2014-Dec-20 16:25N 39°55' E 119°41'0 0.0
2014-Dec-20 15:32N 39°55' E 119°41'0 0.0
2014-Dec-20 14:33N 39°55' E 119°41'0 0.0
2014-Dec-20 13:32N 39°55' E 119°41'0 0.0
2014-Dec-20 12:31N 39°55' E 119°41'0 0.0
2014-Dec-20 11:31N 39°55' E 119°41'0 0.0
2014-Dec-20 10:31N 39°55' E 119°41'0 0.0
2014-Dec-20 09:31N 39°55' E 119°41'0 0.0
2014-Dec-20 08:25N 39°55' E 119°41'0 0.0
2014-Dec-20 07:25N 39°55' E 119°41'0 0.0
2014-Dec-20 06:31N 39°55' E 119°41'0 0.0
2014-Dec-20 05:31N 39°55' E 119°41'0 0.0
2014-Dec-20 04:31N 39°55' E 119°41'0 0.0
2014-Dec-20 03:25N 39°55' E 119°41'0 0.0
2014-Dec-20 02:31N 39°55' E 119°41'0 0.0
2014-Dec-20 01:31N 39°55' E 119°41'0 0.0
2014-Dec-20 00:19N 39°55' E 119°41'0 0.0
2014-Dec-19 23:31N 39°55' E 119°41'0 0.0
2014-Dec-19 22:31N 39°55' E 119°41'0 0.0
2014-Dec-19 21:31N 39°55' E 119°41'0 0.0
2014-Dec-19 20:31N 39°55' E 119°41'0 0.0
2014-Dec-19 19:31N 39°55' E 119°41'0 0.0
2014-Dec-19 18:25N 39°55' E 119°41'0 0.0
2014-Dec-19 17:33N 39°55' E 119°41'3 3.4
2014-Dec-19 16:33N 39°52' E 119°42'3 3.0
2014-Dec-19 15:32N 39°49' E 119°43'1 1.3
2014-Dec-19 14:33N 39°48' E 119°44'4 3.7
2014-Dec-19 13:30N 39°48' E 119°49'0 0.2
2014-Dec-19 12:25N 39°48' E 119°49'0 0.0
2014-Dec-19 11:19N 39°48' E 119°49'0 0.0
2014-Dec-19 08:07N 39°48' E 119°49'0 0.1
2014-Dec-19 07:13N 39°48' E 119°49'0 0.2
2014-Dec-19 06:25N 39°48' E 119°49'0 0.1
2014-Dec-19 05:07N 39°48' E 119°49'0 0.0
2014-Dec-19 04:25N 39°48' E 119°49'0 0.0
2014-Dec-19 03:19N 39°48' E 119°49'0 0.1
2014-Dec-19 02:25N 39°48' E 119°49'0 0.0
2014-Dec-19 01:19N 39°48' E 119°49'0 0.0
2014-Dec-19 00:31N 39°48' E 119°49'0 0.0
2014-Dec-18 23:31N 39°48' E 119°49'0 0.0
2014-Dec-18 22:31N 39°48' E 119°49'0 0.1
2014-Dec-18 21:31N 39°48' E 119°49'0 0.0
2014-Dec-18 20:31N 39°48' E 119°49'0 0.0
2014-Dec-18 19:31N 39°48' E 119°49'0 0.0
2014-Dec-18 18:19N 39°48' E 119°49'0 0.1
2014-Dec-18 17:31N 39°48' E 119°49'3 2.6
2014-Dec-18 16:31N 39°46' E 119°51'15711.8
2014-Dec-18 03:12N 37°58' E 122°17'810.5
2014-Dec-18 02:29N 37°51' E 122°22'1111.9
2014-Dec-18 01:33N 37°45' E 122°34'1111.2
2014-Dec-18 00:34N 37°38' E 122°45'1610.8
2014-Dec-17 23:05N 37°24' E 122°53'711.3
2014-Dec-17 22:29N 37°17' E 122°53'1111.5
2014-Dec-17 21:33N 37°06' E 122°53'1211.8
2014-Dec-17 20:31N 36°54' E 122°54'1111.8
2014-Dec-17 19:33N 36°43' E 122°55'  
2014-Dec-15 06:31N 29°35' E 122°47'2411.3
2014-Dec-15 04:24N 29°12' E 122°38'27610.1
2014-Dec-14 01:04N 25°18' E 119°56'31 8.7
2014-Dec-13 21:33N 24°57' E 119°31'7 7.4
2014-Dec-13 20:33N 24°52' E 119°25'8 7.6
2014-Dec-13 19:32N 24°47' E 119°18'8 7.8
2014-Dec-13 18:33N 24°43' E 119°12'8 8.0
2014-Dec-13 17:33N 24°38' E 119°05'8 8.2
2014-Dec-13 16:33N 24°33' E 118°57'9 8.6
2014-Dec-13 15:33N 24°29' E 118°49'8 8.4
2014-Dec-13 14:33N 24°24' E 118°42'10 7.7
2014-Dec-13 13:12N 24°16' E 118°34'5 7.2
2014-Dec-13 12:33N 24°13' E 118°30'7 7.2
2014-Dec-13 11:33N 24°08' E 118°25'6 6.3
2014-Dec-13 10:33N 24°03' E 118°20'7 6.8
2014-Dec-13 09:33N 23°59' E 118°14'7 7.1
2014-Dec-13 08:33N 23°55' E 118°08'7 6.8
2014-Dec-13 07:33N 23°51' E 118°02'7 7.3
2014-Dec-13 06:33N 23°46' E 117°55'8 8.2
2014-Dec-13 05:33N 23°42' E 117°48'9 8.8
2014-Dec-13 04:33N 23°37' E 117°40'9 8.5
2014-Dec-13 03:29N 23°30' E 117°33'50 6.9
2014-Dec-12 20:15N 22°54' E 116°56'6 8.3
2014-Dec-12 19:33N 22°51' E 116°51'9 9.0
2014-Dec-12 18:33N 22°46' E 116°43'  

Dump ship's entire track history